This is the latest recevied weather packets stored in our database for station/object KE8CZD. If no packets are shown the sender has not sent any weather packets the latest 10 day(s).
| Time | Temp. | Humidity | Pressure | Rain* | Wind** | Luminosity | Snow |
|---|---|---|---|---|---|---|---|
| 1777582846 | 10.56° C | 35% | 1010.6 hPa | 0 mm | - | - | - |
| 1777582484 | 10.56° C | 36% | 1010.6 hPa | 0 mm | - | - | - |
| 1777582127 | 10.56° C | 37% | 1010.6 hPa | 0 mm | - | - | - |
| 1777581764 | 10.56° C | 36% | 1010.6 hPa | 0 mm | - | - | - |
| 1777581404 | 10.56° C | 36% | 1010.6 hPa | 0 mm | - | - | - |
| 1777581044 | 11.11° C | 36% | 1010.6 hPa | 0 mm | - | - | - |
| 1777580685 | 11.67° C | 34% | 1010.6 hPa | 0 mm | - | - | - |
| 1777580324 | 12.22° C | 34% | 1010.4 hPa | 0 mm | - | - | - |
| 1777579964 | 12.78° C | 35% | 1010.4 hPa | 0 mm | - | - | - |
| 1777579604 | 11.67° C | 35% | 1010.6 hPa | 0 mm | - | - | - |
| 1777579246 | 12.22° C | 34% | 1010.5 hPa | 0 mm | - | - | - |
| 1777578885 | 11.11° C | 35% | 1010.6 hPa | 0 mm | - | - | - |
| 1777578525 | 11.11° C | 35% | 1010.7 hPa | 0 mm | - | - | - |
| 1777578164 | 11.67° C | 35% | 1010.6 hPa | 0 mm | - | - | - |
| 1777577805 | 12.78° C | 36% | 1010.5 hPa | 0 mm | - | - | - |
| 1777577445 | 11.67° C | 38% | 1010.7 hPa | 0 mm | - | - | - |
| 1777577084 | 12.22° C | 39% | 1010.5 hPa | 0 mm | - | - | - |
| 1777576724 | 11.11° C | 40% | 1010.9 hPa | 0 mm | - | - | - |
| 1777576364 | 11.11° C | 40% | 1010.9 hPa | 0 mm | - | - | - |
| 1777576005 | 11.11° C | 40% | 1010.8 hPa | 0 mm | - | - | - |
| 1777575644 | 11.11° C | 40% | 1010.8 hPa | 0 mm | - | - | - |
| 1777575284 | 11.11° C | 42% | 1010.9 hPa | 0 mm | - | - | - |
| 1777574924 | 10.56° C | 42% | 1011.1 hPa | 0 mm | - | - | - |
| 1777574564 | 10.56° C | 41% | 1011 hPa | 0 mm | - | - | - |
| 1777574205 | 10.56° C | 41% | 1011 hPa | 0 mm | - | - | - |
* Rain latest hour (hover to see other rain measurements)
** Current wind speed in m/s (hover to see current wind gust speed)